Time;durP1;ratioP1;P1;durP2;ratioP2;P2;SDS_P1;SDS_P2;PMS_P1;PMS_P2;Temp;Humidity;BMP_temperature;BMP_pressure;BME280_temperature;BME280_humidity;BME280_pressure;Samples;Min_cycle;Max_cycle;Signal;HPM_P1;HPM_P2
2023/03/16 00:00:23;;;;;;;8.55;3.65;;;2.10;1.00;;;;;;5044197;28;20233;-80
2023/03/16 00:02:51;;;;;;;10.73;3.80;;;2.10;1.00;;;;;;5038453;28;20240;-81
2023/03/16 00:05:18;;;;;;;12.18;3.83;;;2.00;1.00;;;;;;5040577;28;20233;-80
2023/03/16 00:07:45;;;;;;;11.65;4.28;;;2.00;1.00;;;;;;5041446;28;20324;-80
2023/03/16 00:10:13;;;;;;;11.27;3.90;;;2.00;1.00;;;;;;5034345;28;20241;-80
2023/03/16 00:12:42;;;;;;;10.07;3.55;;;1.90;1.00;;;;;;5036401;28;20242;-84
2023/03/16 00:15:10;;;;;;;12.85;4.57;;;1.90;1.00;;;;;;5044414;28;20751;-83
2023/03/16 00:17:37;;;;;;;7.55;3.40;;;1.90;1.00;;;;;;5051952;28;20255;-83
2023/03/16 00:20:18;;;;;;;15.73;4.55;;;2.00;1.00;;;;;;5052783;28;20237;-84
2023/03/16 00:22:45;;;;;;;12.13;4.22;;;1.90;1.00;;;;;;5058580;28;20257;-84
2023/03/16 00:25:14;;;;;;;13.05;4.00;;;1.90;1.00;;;;;;5044072;27;20340;-84
2023/03/16 00:27:44;;;;;;;14.60;3.97;;;1.80;1.00;;;;;;5056875;28;20232;-84
2023/03/16 00:30:12;;;;;;;10.68;3.30;;;1.80;1.00;;;;;;5061466;28;23017;-84
2023/03/16 00:32:40;;;;;;;11.93;4.85;;;1.80;1.00;;;;;;5062046;28;20230;-84
2023/03/16 00:35:12;;;;;;;9.00;3.92;;;1.80;1.00;;;;;;5058231;28;20365;-83
2023/03/16 00:37:42;;;;;;;11.40;4.28;;;1.70;1.00;;;;;;5060169;28;20655;-83
2023/03/16 00:40:12;;;;;;;10.57;4.18;;;1.70;1.00;;;;;;5058539;28;21199;-83
2023/03/16 00:42:40;;;;;;;10.00;3.60;;;1.60;1.00;;;;;;5060478;28;20233;-85
2023/03/16 00:45:08;;;;;;;11.45;4.10;;;1.50;1.00;;;;;;5060289;28;20328;-85
2023/03/16 00:47:35;;;;;;;10.55;4.72;;;1.50;1.00;;;;;;5061741;28;20245;-83
2023/03/16 00:50:03;;;;;;;9.13;4.28;;;1.40;1.00;;;;;;5065808;28;20272;-83
2023/03/16 00:52:30;;;;;;;10.18;4.32;;;1.50;1.00;;;;;;5058379;28;20237;-83
2023/03/16 00:54:58;;;;;;;10.50;3.83;;;1.50;1.00;;;;;;5057806;28;20515;-82
2023/03/16 00:57:26;;;;;;;10.25;3.90;;;1.50;1.00;;;;;;5056250;28;20275;-83
2023/03/16 00:59:53;;;;;;;9.85;4.00;;;1.50;1.00;;;;;;5086283;27;20238;-83
2023/03/16 01:02:22;;;;;;;9.85;4.53;;;1.50;1.00;;;;;;5064332;28;20232;-83
2023/03/16 01:04:50;;;;;;;13.55;3.92;;;1.50;1.00;;;;;;5064556;28;20232;-82
2023/03/16 01:07:17;;;;;;;12.50;4.22;;;1.40;1.00;;;;;;5063683;28;20240;-84
2023/03/16 01:09:44;;;;;;;10.40;3.80;;;1.40;1.00;;;;;;5059883;28;20685;-84
2023/03/16 01:12:15;;;;;;;9.48;3.70;;;1.30;1.00;;;;;;5050501;27;20240;-83
2023/03/16 01:14:44;;;;;;;9.75;3.83;;;1.40;1.00;;;;;;5066963;28;20415;-82
2023/03/16 01:17:13;;;;;;;9.02;3.88;;;1.30;1.00;;;;;;5058689;28;20238;-83
2023/03/16 01:19:41;;;;;;;13.80;4.10;;;1.30;1.00;;;;;;5046967;28;20242;-83
2023/03/16 01:22:10;;;;;;;9.73;3.95;;;1.30;1.00;;;;;;5061940;27;20243;-82
2023/03/16 01:24:39;;;;;;;13.32;4.03;;;1.20;1.00;;;;;;5059846;27;21178;-83
2023/03/16 01:27:06;;;;;;;12.55;3.63;;;1.20;1.00;;;;;;5055292;28;20352;-82
2023/03/16 01:29:35;;;;;;;11.35;4.32;;;1.20;1.00;;;;;;5042524;28;20319;-83
2023/03/16 01:32:03;;;;;;;9.75;4.00;;;1.10;1.00;;;;;;5038648;28;20241;-82
2023/03/16 01:34:33;;;;;;;9.35;4.50;;;1.10;1.00;;;;;;5043206;28;20238;-83
2023/03/16 01:37:00;;;;;;;10.88;3.97;;;1.00;1.00;;;;;;5055888;27;20265;-83
2023/03/16 01:39:28;;;;;;;10.82;4.15;;;0.90;1.00;;;;;;5044515;28;20303;-83
2023/03/16 01:41:54;;;;;;;11.73;4.70;;;0.80;1.00;;;;;;5039505;28;20238;-83
2023/03/16 01:44:29;;;;;;;12.45;4.65;;;0.80;1.00;;;;;;5060305;28;20327;-81
2023/03/16 01:46:57;;;;;;;12.68;4.30;;;0.80;1.00;;;;;;5056808;28;20262;-81
2023/03/16 01:49:26;;;;;;;9.88;3.92;;;0.70;1.00;;;;;;5059124;28;20260;-83
2023/03/16 01:51:56;;;;;;;10.45;4.28;;;0.60;1.00;;;;;;5056950;28;20325;-83
2023/03/16 01:54:26;;;;;;;10.75;4.32;;;0.70;1.00;;;;;;5058356;28;20269;-82
2023/03/16 01:56:59;;;;;;;10.82;4.35;;;0.70;1.00;;;;;;5059477;28;20265;-83
2023/03/16 01:59:31;;;;;;;10.50;3.63;;;0.70;1.00;;;;;;5060408;28;20260;-80
2023/03/16 02:02:01;;;;;;;9.25;3.78;;;0.70;1.00;;;;;;5063075;28;20243;-79
2023/03/16 02:04:37;;;;;;;13.07;4.38;;;0.80;1.00;;;;;;5061390;28;20233;-79
2023/03/16 02:07:06;;;;;;;11.20;4.00;;;0.80;1.00;;;;;;5062638;28;20258;-79
2023/03/16 02:09:37;;;;;;;10.38;3.92;;;0.80;1.00;;;;;;5056034;28;20713;-79
2023/03/16 02:12:04;;;;;;;9.70;4.28;;;0.70;1.00;;;;;;5056046;28;20355;-79
2023/03/16 02:14:31;;;;;;;9.85;3.75;;;0.80;1.00;;;;;;5063267;28;20241;-78
2023/03/16 02:16:59;;;;;;;13.02;4.18;;;0.80;1.00;;;;;;5063573;28;20772;-79
2023/03/16 02:19:38;;;;;;;9.85;4.15;;;0.80;1.00;;;;;;5061778;28;20324;-79
2023/03/16 02:22:08;;;;;;;12.32;3.75;;;0.70;1.00;;;;;;5061157;28;20239;-80
2023/03/16 02:24:36;;;;;;;10.70;4.28;;;0.80;1.00;;;;;;5060749;28;20244;-79
2023/03/16 02:27:06;;;;;;;10.90;4.00;;;0.70;1.00;;;;;;5055394;28;20237;-78
2023/03/16 02:30:07;;;;;;;9.90;3.55;;;0.70;1.00;;;;;;5058996;28;20236;-78
2023/03/16 02:32:36;;;;;;;11.48;5.22;;;0.80;1.00;;;;;;5019921;28;20241;-79
2023/03/16 02:35:04;;;;;;;10.50;4.38;;;0.80;1.00;;;;;;5049200;28;20343;-78
2023/03/16 02:37:33;;;;;;;8.50;3.83;;;0.80;1.00;;;;;;5060767;28;20273;-78
2023/03/16 02:40:00;;;;;;;9.32;4.10;;;0.80;1.00;;;;;;5063736;28;20237;-77
2023/03/16 02:42:29;;;;;;;10.30;3.70;;;0.70;1.00;;;;;;5063399;28;20238;-78
2023/03/16 02:44:57;;;;;;;11.15;4.90;;;0.70;1.00;;;;;;5061305;28;20246;-79
2023/03/16 02:47:33;;;;;;;10.30;4.40;;;0.70;1.00;;;;;;5052004;28;21428;-78
2023/03/16 02:50:01;;;;;;;12.23;4.38;;;0.60;1.00;;;;;;5051847;28;21197;-80
2023/03/16 02:52:28;;;;;;;12.13;3.83;;;0.60;1.00;;;;;;5054608;28;20228;-81
2023/03/16 02:54:55;;;;;;;12.77;4.00;;;0.60;1.00;;;;;;5040161;28;20341;-80
2023/03/16 02:57:22;;;;;;;12.85;6.05;;;0.60;1.00;;;;;;5037339;28;21060;-79
2023/03/16 02:59:49;;;;;;;12.63;4.97;;;0.60;1.00;;;;;;5031008;28;21298;-79
2023/03/16 03:02:16;;;;;;;10.18;4.90;;;0.60;1.00;;;;;;5034022;28;20253;-80
2023/03/16 03:04:45;;;;;;;10.70;4.80;;;0.50;1.00;;;;;;5036719;28;20296;-81
2023/03/16 03:07:13;;;;;;;10.60;4.60;;;0.50;1.00;;;;;;5043319;28;20244;-80
2023/03/16 03:09:40;;;;;;;13.68;4.25;;;0.50;1.00;;;;;;5052527;28;20238;-81
2023/03/16 03:12:09;;;;;;;12.32;5.28;;;0.40;1.00;;;;;;5050260;28;20617;-81
2023/03/16 03:14:39;;;;;;;16.55;5.38;;;0.30;1.00;;;;;;5049674;28;20268;-81
2023/03/16 03:17:06;;;;;;;10.35;5.40;;;0.30;1.00;;;;;;5054820;28;20247;-80
2023/03/16 03:19:33;;;;;;;11.05;4.35;;;0.30;1.00;;;;;;5053409;27;20263;-80
2023/03/16 03:22:05;;;;;;;10.75;5.15;;;0.20;1.00;;;;;;5056510;28;20241;-81
2023/03/16 03:24:32;;;;;;;12.48;5.00;;;0.30;1.00;;;;;;5046910;28;20355;-79
2023/03/16 03:27:04;;;;;;;10.82;5.00;;;0.20;1.00;;;;;;5048804;28;20295;-80
2023/03/16 03:29:33;;;;;;;13.20;5.07;;;0.10;1.00;;;;;;5052592;28;20244;-80
2023/03/16 03:32:00;;;;;;;11.32;4.70;;;0.10;1.00;;;;;;5052565;28;20318;-80
2023/03/16 03:34:27;;;;;;;11.18;5.28;;;0.10;1.00;;;;;;5054362;28;22949;-80
2023/03/16 03:36:55;;;;;;;11.60;5.00;;;0.20;1.00;;;;;;5053721;28;20318;-80
2023/03/16 03:39:23;;;;;;;11.85;5.13;;;0.20;1.00;;;;;;5058098;28;20244;-80
2023/03/16 03:41:53;;;;;;;11.90;5.20;;;0.30;1.00;;;;;;5058600;28;20249;-80
2023/03/16 03:44:20;;;;;;;13.13;5.75;;;0.30;1.00;;;;;;5047303;28;20232;-79
2023/03/16 03:46:47;;;;;;;9.18;5.50;;;0.40;1.00;;;;;;5058212;28;20251;-79
2023/03/16 03:49:14;;;;;;;10.90;4.35;;;0.40;1.00;;;;;;5051103;28;20931;-80
2023/03/16 03:51:41;;;;;;;13.90;5.40;;;0.30;1.00;;;;;;5054349;28;20790;-80
2023/03/16 03:54:08;;;;;;;11.20;5.50;;;0.30;1.00;;;;;;5052340;28;20704;-80
2023/03/16 03:56:37;;;;;;;11.60;5.25;;;0.30;1.00;;;;;;5057787;28;20237;-79
2023/03/16 03:59:04;;;;;;;15.43;9.23;;;0.20;1.00;;;;;;5050706;28;20245;-79
2023/03/16 04:01:31;;;;;;;13.50;5.55;;;0.20;1.00;;;;;;5053215;28;20248;-79
2023/03/16 04:03:58;;;;;;;10.00;5.00;;;0.20;1.00;;;;;;5053100;28;20737;-80
2023/03/16 04:06:25;;;;;;;15.95;5.45;;;0.20;1.00;;;;;;5056863;28;20267;-80
2023/03/16 04:08:53;;;;;;;11.48;5.28;;;0.20;1.00;;;;;;5051036;28;20259;-79
2023/03/16 04:11:20;;;;;;;12.35;5.70;;;0.20;1.00;;;;;;5050253;28;20236;-79
2023/03/16 04:13:51;;;;;;;11.10;5.18;;;0.20;1.00;;;;;;5057164;28;20323;-80
2023/03/16 04:16:18;;;;;;;9.73;3.78;;;0.20;1.00;;;;;;5056986;28;20240;-80
2023/03/16 04:18:45;;;;;;;12.18;4.60;;;0.30;1.00;;;;;;5055349;28;21075;-79
2023/03/16 04:21:15;;;;;;;12.32;4.47;;;0.30;1.00;;;;;;5059539;28;20239;-80
2023/03/16 04:23:42;;;;;;;10.60;4.80;;;0.30;1.00;;;;;;5064076;28;20245;-79
2023/03/16 04:26:10;;;;;;;12.00;4.80;;;0.30;1.00;;;;;;5063909;28;20247;-83
2023/03/16 04:28:36;;;;;;;13.30;4.55;;;0.20;1.00;;;;;;5058228;28;20233;-81
2023/03/16 04:31:07;;;;;;;14.15;5.35;;;0.20;1.00;;;;;;5054759;28;20240;-82
2023/03/16 04:33:35;;;;;;;11.15;5.30;;;0.10;1.00;;;;;;5062003;28;20245;-82
2023/03/16 04:36:02;;;;;;;9.90;4.10;;;0.10;1.00;;;;;;5059444;28;20251;-81
2023/03/16 04:38:33;;;;;;;11.52;4.78;;;0.10;1.00;;;;;;5060703;28;20324;-81
2023/03/16 04:41:01;;;;;;;14.85;6.35;;;0.10;1.00;;;;;;5063655;28;20314;-82
2023/03/16 04:43:28;;;;;;;10.75;4.55;;;0.10;1.00;;;;;;5058223;28;20267;-82
2023/03/16 04:45:55;;;;;;;12.15;4.55;;;0.10;1.00;;;;;;5060634;28;20233;-81
2023/03/16 04:48:24;;;;;;;11.63;4.43;;;0.10;1.00;;;;;;5061976;28;20745;-80
2023/03/16 04:50:51;;;;;;;11.95;4.40;;;0.20;1.00;;;;;;5061873;28;20239;-80
2023/03/16 04:53:19;;;;;;;10.70;4.68;;;0.10;1.00;;;;;;5040147;28;20239;-82
2023/03/16 04:55:46;;;;;;;11.85;4.88;;;0.20;1.00;;;;;;5049002;28;20294;-84
2023/03/16 04:58:13;;;;;;;10.13;3.97;;;0.20;1.00;;;;;;5067122;28;20234;-81
2023/03/16 05:00:44;;;;;;;10.90;3.65;;;0.20;1.00;;;;;;5058452;28;20233;-82
2023/03/16 05:03:12;;;;;;;8.63;3.60;;;0.20;1.00;;;;;;5049410;28;20346;-83
2023/03/16 05:05:41;;;;;;;12.68;5.13;;;0.20;1.00;;;;;;5058573;28;20331;-83
2023/03/16 05:08:09;;;;;;;16.05;5.07;;;0.20;1.00;;;;;;5055229;28;20245;-81
2023/03/16 05:10:36;;;;;;;16.75;6.30;;;0.20;1.00;;;;;;5055942;28;20950;-81
2023/03/16 05:13:04;;;;;;;12.38;6.65;;;0.10;1.00;;;;;;5054579;28;20235;-80
2023/03/16 05:15:32;;;;;;;11.80;5.28;;;0.00;1.00;;;;;;5056209;28;21104;-82
2023/03/16 05:18:00;;;;;;;11.38;4.78;;;0.00;1.00;;;;;;5063603;28;20707;-84
2023/03/16 05:20:27;;;;;;;14.75;5.22;;;-0.10;1.00;;;;;;5055080;28;21079;-83
2023/03/16 05:23:00;;;;;;;16.30;6.22;;;-0.10;1.00;;;;;;5044293;28;20267;-83
2023/03/16 05:25:27;;;;;;;10.90;4.63;;;-0.10;1.00;;;;;;5042250;28;20304;-85
2023/03/16 05:27:55;;;;;;;15.82;5.35;;;-0.10;1.00;;;;;;5043580;28;20734;-81
2023/03/16 05:30:22;;;;;;;15.73;4.75;;;-0.20;1.00;;;;;;5041890;28;20246;-86
2023/03/16 05:32:49;;;;;;;17.13;6.10;;;-0.20;1.00;;;;;;5040232;28;20281;-84
2023/03/16 05:35:17;;;;;;;11.25;5.63;;;-0.20;1.00;;;;;;5038025;28;20252;-84
2023/03/16 05:37:44;;;;;;;20.67;6.03;;;-0.10;1.00;;;;;;5040598;28;20245;-85
2023/03/16 05:40:16;;;;;;;12.48;5.50;;;-0.20;1.00;;;;;;5035460;28;20242;-83
2023/03/16 05:42:44;;;;;;;12.30;5.53;;;-0.10;1.00;;;;;;5041354;28;20248;-83
2023/03/16 05:45:12;;;;;;;16.30;5.03;;;-0.10;1.00;;;;;;5047337;28;20237;-84
2023/03/16 05:47:39;;;;;;;15.13;5.15;;;-0.20;1.00;;;;;;5054511;28;20233;-82
2023/03/16 05:50:10;;;;;;;14.10;6.38;;;0.00;1.00;;;;;;5056481;28;20237;-84
2023/03/16 05:52:37;;;;;;;13.40;5.22;;;0.10;1.00;;;;;;5055282;28;20245;-82
2023/03/16 05:55:05;;;;;;;12.90;5.40;;;0.20;1.00;;;;;;5054590;28;21039;-81
2023/03/16 05:57:34;;;;;;;15.38;5.35;;;0.20;1.00;;;;;;5055372;28;20425;-82
2023/03/16 06:00:10;;;;;;;11.93;5.40;;;0.30;1.00;;;;;;5055011;28;20307;-82
2023/03/16 06:02:37;;;;;;;11.88;5.38;;;0.40;1.00;;;;;;5060954;28;20252;-82
2023/03/16 06:05:06;;;;;;;14.07;6.07;;;0.50;1.00;;;;;;5064607;28;20819;-82
2023/03/16 06:07:33;;;;;;;17.35;6.93;;;0.50;1.00;;;;;;5055140;28;20240;-83
2023/03/16 06:10:00;;;;;;;18.02;6.25;;;0.50;1.00;;;;;;5052589;28;20310;-84
2023/03/16 06:12:27;;;;;;;14.48;5.95;;;0.50;1.00;;;;;;5060902;28;20289;-82
2023/03/16 06:14:55;;;;;;;17.27;6.50;;;0.50;1.00;;;;;;5049215;28;20242;-83
2023/03/16 06:17:22;;;;;;;12.80;5.20;;;0.50;1.00;;;;;;5040125;28;20237;-83
2023/03/16 06:19:50;;;;;;;11.18;4.90;;;0.60;1.00;;;;;;5034809;28;20326;-81
2023/03/16 06:22:18;;;;;;;13.95;5.93;;;0.70;1.00;;;;;;5041718;28;20257;-83
2023/03/16 06:24:45;;;;;;;22.05;9.43;;;0.80;1.00;;;;;;5039571;28;20761;-81
2023/03/16 06:27:13;;;;;;;15.60;6.28;;;0.90;1.00;;;;;;5054655;28;20244;-86
2023/03/16 06:29:40;;;;;;;14.77;5.53;;;0.90;1.00;;;;;;5053824;28;20321;-83
2023/03/16 06:32:08;;;;;;;13.82;5.93;;;1.10;1.00;;;;;;5043789;28;20276;-81
2023/03/16 06:34:35;;;;;;;13.57;5.95;;;1.20;1.00;;;;;;5056744;28;20977;-82
2023/03/16 06:37:04;;;;;;;14.35;6.57;;;1.30;1.00;;;;;;5047906;28;20225;-83
2023/03/16 06:39:31;;;;;;;16.52;7.85;;;1.40;1.00;;;;;;5053036;27;20232;-83
2023/03/16 06:42:03;;;;;;;13.75;5.70;;;1.50;1.00;;;;;;5065381;28;20233;-83
2023/03/16 06:44:30;;;;;;;20.17;6.07;;;1.60;1.00;;;;;;5060434;28;20263;-82
2023/03/16 06:46:57;;;;;;;15.93;8.05;;;1.80;1.00;;;;;;5069024;28;22276;-83
2023/03/16 06:49:25;;;;;;;13.75;5.30;;;1.90;1.00;;;;;;5066785;28;20237;-84
2023/03/16 06:51:55;;;;;;;13.98;6.75;;;1.90;1.00;;;;;;5064292;28;20252;-84
2023/03/16 06:54:23;;;;;;;16.13;5.75;;;2.00;1.00;;;;;;5063857;28;20264;-83
2023/03/16 06:56:51;;;;;;;15.98;7.18;;;2.10;1.00;;;;;;5060598;28;20242;-83
2023/03/16 06:59:18;;;;;;;12.50;6.30;;;2.20;1.00;;;;;;5056866;28;20278;-82
2023/03/16 07:01:45;;;;;;;11.55;5.03;;;2.30;1.00;;;;;;5063632;28;20237;-83
2023/03/16 07:04:12;;;;;;;15.48;7.20;;;2.40;1.00;;;;;;5084722;27;20243;-82
2023/03/16 07:06:41;;;;;;;13.23;6.03;;;2.50;1.00;;;;;;5043040;28;20238;-82
2023/03/16 07:09:09;;;;;;;10.15;4.50;;;2.60;1.00;;;;;;5048335;28;20241;-84
2023/03/16 07:11:36;;;;;;;10.50;4.97;;;2.70;1.00;;;;;;5043159;28;20847;-83
2023/03/16 07:14:03;;;;;;;15.80;5.70;;;2.80;1.00;;;;;;5034860;28;20242;-83
2023/03/16 07:16:30;;;;;;;10.55;3.92;;;3.00;1.00;;;;;;5041219;27;20238;-82
2023/03/16 07:19:00;;;;;;;11.80;4.53;;;3.10;1.00;;;;;;5055511;28;20269;-83
2023/03/16 07:21:27;;;;;;;12.65;4.05;;;3.20;1.00;;;;;;5062957;28;20245;-82
2023/03/16 07:23:56;;;;;;;15.82;5.43;;;3.50;1.00;;;;;;5059809;28;20292;-84
2023/03/16 07:26:23;;;;;;;12.93;5.93;;;3.70;1.00;;;;;;5061305;28;20240;-84
2023/03/16 07:28:50;;;;;;;10.27;3.47;;;3.90;1.00;;;;;;5066476;28;20327;-81
2023/03/16 07:31:17;;;;;;;11.07;4.30;;;3.90;1.00;;;;;;5070218;28;20242;-83
2023/03/16 07:33:44;;;;;;;9.60;4.15;;;4.10;1.00;;;;;;5065137;28;20319;-83
2023/03/16 07:36:19;;;;;;;13.57;4.25;;;4.10;1.00;;;;;;5063432;27;20319;-81
2023/03/16 07:38:46;;;;;;;10.30;3.65;;;4.30;1.00;;;;;;5069618;27;20941;-79
2023/03/16 07:41:15;;;;;;;8.50;3.92;;;4.40;1.00;;;;;;5055936;28;20241;-83
2023/03/16 07:43:43;;;;;;;10.18;4.25;;;4.50;1.00;;;;;;5059738;28;20241;-81
2023/03/16 07:46:15;;;;;;;14.60;4.57;;;4.70;1.00;;;;;;5065143;28;20242;-84
2023/03/16 07:48:44;;;;;;;13.00;3.95;;;4.70;1.00;;;;;;5059217;28;20307;-82
2023/03/16 07:51:12;;;;;;;14.95;4.32;;;4.90;1.00;;;;;;5060288;28;20280;-80
2023/03/16 07:53:40;;;;;;;12.40;4.10;;;5.10;1.00;;;;;;5058363;28;20336;-83
2023/03/16 07:56:10;;;;;;;14.82;5.03;;;5.20;1.00;;;;;;5064160;28;20237;-81
2023/03/16 07:58:39;;;;;;;10.82;3.30;;;5.40;1.00;;;;;;5063913;28;20339;-82
2023/03/16 08:01:06;;;;;;;11.30;4.15;;;5.50;1.00;;;;;;5061848;28;20296;-83
2023/03/16 08:03:33;;;;;;;11.90;3.50;;;5.70;1.00;;;;;;5067751;28;20234;-83
2023/03/16 08:06:00;;;;;;;13.23;6.05;;;5.80;1.00;;;;;;5066910;28;20291;-81
2023/03/16 08:08:27;;;;;;;11.85;4.00;;;5.80;1.00;;;;;;5056474;28;20237;-81
2023/03/16 08:10:54;;;;;;;9.15;3.10;;;6.00;1.00;;;;;;5063819;28;20229;-81
2023/03/16 08:13:22;;;;;;;9.73;3.20;;;6.00;1.00;;;;;;5062942;28;20234;-82
2023/03/16 08:15:57;;;;;;;9.60;2.67;;;6.10;1.00;;;;;;5061897;28;20236;-83
2023/03/16 08:18:24;;;;;;;9.45;3.10;;;6.10;1.00;;;;;;5042916;28;20257;-81
2023/03/16 08:20:52;;;;;;;10.52;3.10;;;6.20;1.00;;;;;;5039410;28;20310;-78
2023/03/16 08:23:20;;;;;;;8.35;3.47;;;6.30;1.00;;;;;;5063611;28;20245;-83
2023/03/16 08:25:54;;;;;;;14.40;4.45;;;6.40;1.00;;;;;;5061708;28;20365;-81
2023/03/16 08:28:24;;;;;;;9.85;5.30;;;6.50;1.00;;;;;;5054387;28;20242;-80
2023/03/16 08:30:54;;;;;;;10.20;4.65;;;6.60;1.00;;;;;;5060233;28;20408;-80
2023/03/16 08:33:21;;;;;;;11.40;2.95;;;6.70;1.00;;;;;;5059167;28;20749;-80
2023/03/16 08:35:48;;;;;;;9.30;2.92;;;6.80;1.00;;;;;;5059069;28;20719;-81
2023/03/16 08:38:15;;;;;;;8.10;2.70;;;6.90;1.00;;;;;;5055803;28;21776;-80
2023/03/16 08:40:47;;;;;;;7.78;2.25;;;7.00;1.00;;;;;;5056805;28;20247;-82
2023/03/16 08:43:14;;;;;;;11.02;3.60;;;7.00;1.00;;;;;;5054074;28;20244;-81
2023/03/16 08:45:41;;;;;;;8.00;2.42;;;7.10;1.00;;;;;;5056765;28;20263;-82
2023/03/16 08:48:11;;;;;;;7.70;2.90;;;7.20;1.00;;;;;;5069086;28;20250;-83
2023/03/16 08:50:40;;;;;;;9.65;3.50;;;7.30;1.00;;;;;;5059326;28;21047;-80
2023/03/16 08:53:07;;;;;;;7.93;3.55;;;7.40;1.00;;;;;;5061173;28;20663;-80
2023/03/16 08:55:35;;;;;;;15.40;3.72;;;7.40;1.00;;;;;;5059479;28;20303;-83
2023/03/16 08:58:02;;;;;;;10.15;3.00;;;7.60;1.00;;;;;;5056038;28;20264;-79
2023/03/16 09:00:29;;;;;;;9.10;3.10;;;7.70;1.00;;;;;;5055529;28;20336;-80
2023/03/16 09:02:56;;;;;;;11.45;3.00;;;7.90;1.00;;;;;;5061749;28;20612;-81
2023/03/16 09:05:25;;;;;;;10.55;3.20;;;8.00;1.00;;;;;;5060349;28;20817;-81
2023/03/16 09:07:52;;;;;;;8.20;3.07;;;8.20;1.00;;;;;;5060350;28;20236;-80
2023/03/16 09:10:21;;;;;;;11.47;2.73;;;8.30;1.00;;;;;;5062556;28;21195;-82
2023/03/16 09:12:50;;;;;;;14.40;3.67;;;8.50;1.00;;;;;;5061811;28;20518;-80
2023/03/16 09:15:19;;;;;;;9.63;2.93;;;8.70;1.00;;;;;;5068885;28;20517;-80
2023/03/16 09:17:47;;;;;;;12.17;2.63;;;9.00;1.00;;;;;;5065893;28;20568;-80
2023/03/16 09:20:15;;;;;;;12.47;3.00;;;9.50;1.00;;;;;;5062416;28;20477;-82
2023/03/16 09:22:47;;;;;;;8.20;3.63;;;10.60;1.00;;;;;;5070151;28;20428;-80
2023/03/16 09:25:14;;;;;;;8.30;2.13;;;12.40;1.00;;;;;;5063409;28;20514;-81
2023/03/16 09:27:41;;;;;;;9.53;3.00;;;14.30;1.00;;;;;;5062598;28;21184;-80
2023/03/16 09:30:09;;;;;;;11.33;2.10;;;15.70;1.00;;;;;;5067828;28;20482;-81
2023/03/16 09:32:37;;;;;;;6.53;2.00;;;16.90;1.00;;;;;;5062476;28;20464;-82
2023/03/16 09:35:05;;;;;;;7.00;2.23;;;17.10;1.00;;;;;;5062327;28;21060;-80
2023/03/16 09:37:33;;;;;;;7.87;2.50;;;17.50;1.00;;;;;;5063825;28;20475;-80
2023/03/16 09:40:01;;;;;;;6.73;2.13;;;17.70;1.00;;;;;;5058475;28;20507;-81
2023/03/16 09:42:35;;;;;;;9.67;2.63;;;18.30;1.00;;;;;;5066429;28;20907;-81
2023/03/16 09:45:12;;;;;;;6.30;1.97;;;19.20;1.00;;;;;;5065616;28;20520;-81
2023/03/16 09:47:42;;;;;;;12.47;2.87;;;20.00;1.00;;;;;;5059044;28;20480;-81
2023/03/16 09:50:16;;;;;;;7.00;1.90;;;20.50;1.00;;;;;;5059581;28;20477;-78
2023/03/16 09:52:57;;;;;;;9.90;2.63;;;20.10;1.00;;;;;;5061414;28;20939;-80
2023/03/16 09:55:31;;;;;;;6.70;2.00;;;20.40;1.00;;;;;;5061937;27;20458;-80
2023/03/16 09:58:00;;;;;;;6.33;2.20;;;19.60;1.00;;;;;;5064732;28;20951;-81
2023/03/16 10:00:31;;;;;;;7.20;2.10;;;20.00;1.00;;;;;;5060257;28;20526;-81
2023/03/16 10:03:23;;;;;;;5.97;2.43;;;20.30;1.00;;;;;;5064100;28;20471;-79
2023/03/16 10:05:56;;;;;;;5.63;1.90;;;20.60;1.00;;;;;;5061791;28;20461;-78
2023/03/16 10:08:25;;;;;;;7.53;2.60;;;21.00;1.00;;;;;;5061015;28;20458;-77
2023/03/16 10:11:30;;;;;;;7.93;3.27;;;21.40;1.00;;;;;;5058686;28;20834;-81
2023/03/16 10:14:01;;;;;;;5.83;1.93;;;21.80;1.00;;;;;;5013563;28;20556;-79
2023/03/16 10:16:36;;;;;;;10.90;5.07;;;22.40;1.00;;;;;;5021545;28;20537;-82
2023/03/16 10:19:11;;;;;;;5.60;1.70;;;22.00;1.00;;;;;;5024861;28;20464;-79
2023/03/16 10:21:40;;;;;;;4.10;1.30;;;21.90;1.00;;;;;;5042505;28;20958;-80
2023/03/16 10:24:16;;;;;;;5.20;1.60;;;21.20;1.00;;;;;;5041771;28;20663;-79
2023/03/16 10:26:50;;;;;;;5.20;1.83;;;21.70;1.00;;;;;;5044219;28;20464;-77
2023/03/16 10:29:17;;;;;;;6.00;1.70;;;22.70;1.00;;;;;;5034388;28;21346;-81
2023/03/16 10:31:44;;;;;;;7.40;2.10;;;22.50;1.00;;;;;;5048106;28;20477;-81
2023/03/16 10:34:12;;;;;;;5.70;2.00;;;22.20;1.00;;;;;;5050386;28;21699;-84
2023/03/16 10:36:43;;;;;;;5.90;2.07;;;22.30;1.00;;;;;;5040938;28;20831;-81
2023/03/16 10:39:12;;;;;;;6.20;2.50;;;23.00;1.00;;;;;;5039153;28;20465;-82
2023/03/16 10:41:42;;;;;;;6.40;2.20;;;23.10;1.00;;;;;;5044190;28;20544;-81
2023/03/16 10:44:13;;;;;;;4.70;1.63;;;23.60;1.00;;;;;;5053071;28;20553;-81
2023/03/16 10:46:44;;;;;;;6.23;1.90;;;24.00;1.00;;;;;;5065909;28;20973;-83
2023/03/16 10:49:24;;;;;;;6.13;1.83;;;23.90;1.00;;;;;;5060163;28;20470;-80
2023/03/16 10:51:53;;;;;;;5.10;1.87;;;23.90;1.00;;;;;;5058368;28;20502;-80
2023/03/16 10:54:31;;;;;;;6.90;2.23;;;24.40;1.00;;;;;;5059733;28;20468;-79
2023/03/16 10:56:59;;;;;;;6.30;2.13;;;25.00;1.00;;;;;;5062076;28;20545;-83
2023/03/16 10:59:33;;;;;;;4.20;1.50;;;24.20;1.00;;;;;;5063399;28;20465;-82
2023/03/16 11:02:16;;;;;;;6.50;2.47;;;23.50;1.00;;;;;;5059426;28;20490;-81
2023/03/16 11:04:43;;;;;;;5.43;1.77;;;24.30;1.00;;;;;;5060546;28;20593;-83
2023/03/16 11:07:17;;;;;;;5.60;1.60;;;25.10;1.00;;;;;;5064715;28;20546;-82
2023/03/16 11:09:46;;;;;;;4.63;1.90;;;25.40;1.00;;;;;;5065429;28;20473;-82
2023/03/16 11:12:14;;;;;;;4.97;1.83;;;26.00;1.00;;;;;;5061497;28;20483;-80
2023/03/16 11:14:45;;;;;;;8.67;1.87;;;26.10;1.00;;;;;;5058284;28;20438;-80
2023/03/16 11:17:16;;;;;;;7.83;3.20;;;26.30;1.00;;;;;;5058520;28;20493;-80
2023/03/16 11:19:52;;;;;;;4.73;1.73;;;26.60;1.00;;;;;;5041393;28;20457;-80
2023/03/16 11:22:23;;;;;;;6.20;2.10;;;26.50;1.00;;;;;;5043538;28;20560;-80
2023/03/16 11:24:54;;;;;;;10.63;3.10;;;27.30;1.00;;;;;;5047956;28;20904;-80
2023/03/16 11:27:25;;;;;;;4.80;1.80;;;27.90;1.00;;;;;;5040665;28;20516;-80
2023/03/16 11:30:10;;;;;;;4.17;1.67;;;27.40;1.00;;;;;;5048063;28;20474;-80
2023/03/16 11:32:39;;;;;;;4.47;1.87;;;27.00;1.00;;;;;;5055887;27;20559;-80
2023/03/16 11:35:15;;;;;;;5.77;2.10;;;26.50;1.00;;;;;;5035822;28;21037;-79
2023/03/16 11:38:00;;;;;;;7.17;2.10;;;26.60;1.00;;;;;;5043468;28;20458;-81
2023/03/16 11:40:40;;;;;;;5.13;1.60;;;26.20;1.00;;;;;;5051122;28;20899;-80
2023/03/16 11:43:26;;;;;;;7.83;2.80;;;26.30;1.00;;;;;;5068823;28;20623;-80
2023/03/16 11:46:09;;;;;;;5.87;1.83;;;26.70;1.00;;;;;;5065037;28;20463;-81
2023/03/16 11:48:40;;;;;;;4.70;1.77;;;25.10;1.00;;;;;;5064944;28;20501;-81
2023/03/16 11:51:19;;;;;;;6.60;1.40;;;23.60;1.00;;;;;;5066917;28;20552;-81
2023/03/16 11:53:52;;;;;;;6.73;2.00;;;23.20;1.00;;;;;;5066563;28;20474;-80
2023/03/16 11:56:31;;;;;;;3.50;1.10;;;23.90;1.00;;;;;;5053124;28;20449;-83
2023/03/16 11:59:36;;;;;;;4.70;1.60;;;23.90;1.00;;;;;;5069518;28;20559;-82
2023/03/16 12:02:23;;;;;;;6.00;1.50;;;24.90;1.00;;;;;;5067069;28;20423;-83
2023/03/16 12:05:06;;;;;;;6.07;1.90;;;25.30;1.00;;;;;;5075114;28;20461;-85
2023/03/16 12:07:50;;;;;;;4.70;1.63;;;24.80;1.00;;;;;;5072816;28;20467;-83
2023/03/16 12:10:24;;;;;;;4.23;1.37;;;25.70;1.00;;;;;;5071247;28;20417;-81
2023/03/16 12:13:13;;;;;;;4.50;1.77;;;24.00;1.00;;;;;;5073759;28;20947;-84
2023/03/16 12:15:43;;;;;;;5.90;1.60;;;24.60;1.00;;;;;;5070007;28;20851;-85
2023/03/16 12:18:17;;;;;;;5.10;1.33;;;25.30;1.00;;;;;;5071559;27;21070;-83
2023/03/16 12:20:53;;;;;;;4.50;1.87;;;24.80;1.00;;;;;;5071400;28;20535;-83
2023/03/16 12:23:25;;;;;;;6.03;2.10;;;24.80;1.00;;;;;;5068999;28;20460;-84
2023/03/16 12:25:53;;;;;;;3.77;1.40;;;25.10;1.00;;;;;;5067379;28;20458;-82
2023/03/16 12:28:25;;;;;;;6.30;2.33;;;25.80;1.00;;;;;;5064606;28;20506;-82
2023/03/16 12:31:02;;;;;;;6.33;2.83;;;26.60;1.00;;;;;;5070585;28;20452;-82
2023/03/16 12:33:44;;;;;;;4.90;1.77;;;27.20;1.00;;;;;;5054961;27;20515;-83
2023/03/16 12:36:42;;;;;;;4.80;1.90;;;28.10;1.00;;;;;;5070786;28;20474;-82
2023/03/16 12:39:16;;;;;;;3.30;1.40;;;29.20;1.00;;;;;;5073496;28;20501;-83
2023/03/16 12:41:54;;;;;;;5.20;1.77;;;27.70;1.00;;;;;;5066714;28;20465;-85
2023/03/16 12:44:31;;;;;;;4.50;1.60;;;25.70;1.00;;;;;;5067163;28;20464;-84
2023/03/16 12:47:04;;;;;;;6.60;1.83;;;25.90;1.00;;;;;;5063086;28;20434;-85
2023/03/16 12:49:35;;;;;;;6.90;2.20;;;27.20;1.00;;;;;;5071782;28;21280;-84
2023/03/16 12:52:07;;;;;;;5.83;1.40;;;28.10;1.00;;;;;;5072181;28;20496;-82
2023/03/16 12:54:34;;;;;;;5.10;1.20;;;27.00;1.00;;;;;;5074944;28;20460;-84
2023/03/16 12:57:04;;;;;;;7.33;1.57;;;26.60;1.00;;;;;;5069235;27;20477;-86
2023/03/16 12:59:40;;;;;;;3.80;1.33;;;26.60;1.00;;;;;;5075499;28;20479;-87
2023/03/16 13:02:16;;;;;;;6.40;1.50;;;26.90;1.00;;;;;;5070526;28;20458;-85
2023/03/16 13:04:48;;;;;;;3.10;1.23;;;26.80;1.00;;;;;;5076947;28;20424;-90
2023/03/16 13:07:19;;;;;;;3.40;1.13;;;25.30;1.00;;;;;;5075616;28;21653;-87
2023/03/16 13:09:51;;;;;;;6.97;1.80;;;24.90;1.00;;;;;;5054008;27;20549;-87
2023/03/16 13:12:26;;;;;;;4.57;1.50;;;24.10;1.00;;;;;;5054028;28;20558;-86